Onweer radar Meer informatie blitzortung!


Regen radar Meer informatie rain snow radar


Bezoek onze andere website:

Template documentation
and downloads

And another site



Het weer levert geen direct gevaar op.    Er zijn geen waarschuwingen afgegeven.

METAR rapporten vliegvelden

   
EHRD - Rotterdam
Gewijzigd: 17-06-2018 23:25
Grotendeels bewolkt  
Grotendeels bewolkt  
   Wind: ZW 22.2 km/h
Wind: ZW 22.2 km/h
Temperatuur: 16°C
Dauwpunt: 11°C
Vochtigheid: 72%
Barometer: 1018 hPa
Bewolking: Mostly Cloudy
Zicht: meer dan 10 km
Bewolking: Grotendeels bewolkt 2600 ft
EHRD 172125Z AUTO 23012KT 200V260 9999 BKN026 16/11 Q1018 NOSIG
EHAM - Amsterdam
Gewijzigd: 17-06-2018 23:25
Licht bewolkt  
Licht bewolkt  
   Wind: ZW 24.1 km/h
Wind: ZW 24.1 km/h
Temperatuur: 16°C
Dauwpunt: 10°C
Vochtigheid: 68%
Barometer: 1018 hPa
Bewolking: Few Clouds
Zicht: meer dan 10 km
Bewolking: Licht bewolkt 2000 ft
EHAM 172125Z 23013KT 190V270 9999 FEW020 16/10 Q1018 NOSIG
EHEH - Eindhoven
Gewijzigd: 17-06-2018 23:25
Bewolking  
Bewolking  
   Wind: ZZW 5.6 km/h
Wind: ZZW 5.6 km/h
Temperatuur: 15°C
Dauwpunt: 12°C
Vochtigheid: 82%
Barometer: 1019 hPa
Bewolking: Overcast
Zicht: meer dan 10 km
Bewolking: Grotendeels bewolkt 5800 ft,
Bewolking 6300 ft
EHEH 172125Z AUTO 21003KT 200V270 9999 BKN058 OVC063 15/12 Q1019 BLU 23003KT 9999 FEW030 SCT040 BKN050
EHBK - Maastricht
Gewijzigd: 17-06-2018 23:25
Gedeeltelijk bewolkt  
Gedeeltelijk bewolkt  
   Wind: WZW 11.1 km/h
Wind: WZW 11.1 km/h
Temperatuur: 15°C
Dauwpunt: 9°C
Vochtigheid: 68%
Barometer: 1020 hPa
Bewolking: Partly Cloudy
Zicht: meer dan 10 km
Bewolking: Gedeeltelijk bewolkt ft
EHBK 172125Z AUTO 24006KT 9999 NSC 15/09 Q1020
EDDL - Brussel
Gewijzigd: 17-06-2018 23:20
Wat regen mogelijk, Grotendeels bewolkt  
Wat regen mogelijk, Grotendeels bewolkt  
   Wind: Oosten 5.6 km/h
Wind: Oosten 5.6 km/h
Temperatuur: 16°C
Dauwpunt: 12°C
Vochtigheid: 77%
Barometer: 1019 hPa
Bewolking: Mostly Cloudy
Zicht: meer dan 10 km
Bewolking: Grotendeels bewolkt 4500 ft
EDDL 172120Z 08003KT 9999 -RA BKN045 16/12 Q1019 NOSIG
EBOS - Dusseldorf
Gewijzigd: 17-06-2018 23:20
Grotendeels bewolkt  
Grotendeels bewolkt  
   Wind: NNO 14.8 km/h
Wind: NNO 14.8 km/h
Temperatuur: 15°C
Dauwpunt: 10°C
Vochtigheid: 72%
Barometer: 1019 hPa
Bewolking: Mostly Cloudy
Zicht: meer dan 10 km
Bewolking: Grotendeels bewolkt 2300 ft,
Grotendeels bewolkt 2900 ft
EBOS 172120Z 02008KT 9999 BKN023 BKN029 15/10 Q1019 TEMPO BKN009

Script ontwikkeld door  Saratoga-weather.org Aangepast voor de template door  Weerstation Leuven

U vindt ons ook hier:

Het Weer Aktueel

European Weather Network

Weather Underground

WeatherlinkIP

HAMweather, WeatherForYou, PWS Weather

Apparatuur in gebruik:

Weerstation
Davis VP2

Weerprogramma
Cumulus

Weercomputer
Zotac

Webleverancier
Quick Servers

Davis VP2

Cumulus

Zotac

Quick Servers